createdAt,value
2022-09-02T00:04:04.954Z,1.95
2022-09-02T00:14:11.435Z,2.13
2022-09-02T00:24:13.938Z,2.15
2022-09-02T00:34:16.135Z,2.13
2022-09-02T00:44:21.131Z,2.05
2022-09-02T00:54:29.879Z,1.80
2022-09-02T01:04:32.011Z,1.90
2022-09-02T01:14:34.335Z,2.08
2022-09-02T01:24:36.711Z,2.05
2022-09-02T01:34:38.774Z,2.22
2022-09-02T01:44:46.291Z,2.40
2022-09-02T01:54:49.733Z,2.38
2022-09-02T02:04:52.372Z,2.15
2022-09-02T02:14:55.026Z,2.28
2022-09-02T02:24:58.093Z,2.42
2022-09-02T02:35:00.193Z,2.15
2022-09-02T02:45:02.754Z,2.50
2022-09-02T02:55:04.515Z,2.30
2022-09-02T03:05:11.892Z,2.55
2022-09-02T03:15:14.315Z,2.20
2022-09-02T03:25:18.952Z,2.08
2022-09-02T03:35:24.392Z,2.13
2022-09-02T03:45:26.871Z,2.45
2022-09-02T03:55:30.551Z,2.40
2022-09-02T04:05:33.010Z,2.47
2022-09-02T04:15:35.754Z,2.25
2022-09-02T04:25:42.855Z,2.38
2022-09-02T04:35:52.811Z,2.58
2022-09-02T04:45:56.216Z,2.47
2022-09-02T04:55:59.294Z,2.53
2022-09-02T05:06:12.630Z,2.58
2022-09-02T05:16:23.506Z,2.33
2022-09-02T05:26:31.476Z,2.45
2022-09-02T05:36:34.873Z,2.72
2022-09-02T05:46:46.786Z,2.38
2022-09-02T05:56:57.775Z,2.80
2022-09-02T06:07:00.957Z,3.08
2022-09-02T06:17:03.513Z,3.72
2022-09-02T06:27:14.314Z,3.60
2022-09-02T06:37:20.232Z,3.38
2022-09-02T06:47:23.380Z,2.95
2022-09-02T06:57:34.081Z,2.78
2022-09-02T07:07:48.934Z,1.93
2022-09-02T07:17:51.775Z,1.73
2022-09-02T07:28:07.431Z,1.17
2022-09-02T07:38:11.959Z,0.98
2022-09-02T07:48:13.836Z,1.00
2022-09-02T07:58:21.899Z,1.17
2022-09-02T08:08:24.156Z,0.98
2022-09-02T08:18:29.337Z,0.82
2022-09-02T08:28:32.304Z,1.00
2022-09-02T08:38:34.458Z,0.80
2022-09-02T08:48:42.720Z,0.80
2022-09-02T08:58:51.958Z,1.05
2022-09-02T09:09:31.537Z,0.85
2022-09-02T09:19:54.041Z,0.95
2022-09-02T09:29:56.233Z,0.70
2022-09-02T09:39:57.916Z,0.90
2022-09-02T09:50:20.953Z,0.70
2022-09-02T10:00:34.437Z,0.95
2022-09-02T10:10:38.278Z,0.70
2022-09-02T10:21:13.943Z,0.70
2022-09-02T10:31:37.343Z,0.90
2022-09-02T10:41:50.672Z,1.17
2022-09-02T10:52:06.483Z,1.00
2022-09-02T11:02:08.516Z,1.15
2022-09-02T11:12:22.931Z,0.90
2022-09-02T11:23:02.717Z,0.80
2022-09-02T11:33:25.333Z,0.70
2022-09-02T11:44:08.837Z,0.63
2022-09-02T11:54:14.633Z,0.90
2022-09-02T12:15:10.475Z,1.00
2022-09-02T12:25:39.676Z,0.60
2022-09-02T12:36:03.593Z,1.00
2022-09-02T12:46:26.090Z,0.80
2022-09-02T12:56:28.294Z,0.60
2022-09-02T13:07:12.135Z,0.65
2022-09-02T13:17:51.973Z,0.73
2022-09-02T13:28:29.976Z,0.70
2022-09-02T13:38:34.852Z,0.60
2022-09-02T13:48:37.337Z,0.60
2022-09-02T13:58:56.214Z,0.80
2022-09-02T14:09:02.436Z,0.50
2022-09-02T14:19:13.414Z,0.80
2022-09-02T14:29:23.674Z,0.52
2022-09-02T14:39:25.399Z,0.80
2022-09-02T14:49:38.457Z,0.60
2022-09-02T14:59:40.216Z,0.50
2022-09-02T15:09:42.917Z,0.80
2022-09-02T15:19:44.934Z,0.60
2022-09-02T15:29:47.055Z,0.40
2022-09-02T15:39:48.765Z,0.50
2022-09-02T15:49:51.033Z,0.55
2022-09-02T15:59:53.553Z,0.70
2022-09-02T16:09:56.565Z,1.25
2022-09-02T16:20:01.256Z,0.52
2022-09-02T16:30:03.176Z,0.75
2022-09-02T16:40:06.961Z,0.85
2022-09-02T16:50:09.536Z,0.70
2022-09-02T17:00:12.354Z,0.80
2022-09-02T17:10:14.697Z,0.85
2022-09-02T17:20:16.641Z,0.80
2022-09-02T17:30:18.896Z,0.93
2022-09-02T17:40:38.938Z,1.63
2022-09-02T17:50:42.455Z,0.50
2022-09-02T18:00:48.001Z,0.50
2022-09-02T18:11:01.615Z,0.80
2022-09-02T18:21:19.893Z,0.70
2022-09-02T18:31:50.194Z,0.77
2022-09-02T18:42:17.356Z,0.70
2022-09-02T18:52:19.214Z,0.70
2022-09-02T19:02:54.493Z,0.90
2022-09-02T19:12:58.556Z,0.85
2022-09-02T19:23:01.273Z,1.00
2022-09-02T19:33:09.274Z,0.85
2022-09-02T19:43:14.373Z,0.80
2022-09-02T19:53:33.216Z,0.47
2022-09-02T20:03:35.822Z,0.65
2022-09-02T20:13:41.571Z,0.95
2022-09-02T20:23:47.914Z,1.30
2022-09-02T20:34:33.574Z,0.60
2022-09-02T20:44:50.091Z,0.60
2022-09-02T20:55:02.071Z,0.85
2022-09-02T21:05:22.373Z,0.60
2022-09-02T21:15:38.496Z,0.68
2022-09-02T21:26:07.539Z,0.77
2022-09-02T21:36:10.860Z,0.70
2022-09-02T21:46:29.796Z,0.98
2022-09-02T21:56:50.497Z,0.77
2022-09-02T22:06:59.951Z,0.60
2022-09-02T22:17:12.242Z,0.75
2022-09-02T22:27:18.519Z,0.50
2022-09-02T22:37:26.926Z,0.82
2022-09-02T22:47:50.264Z,0.52
2022-09-02T22:58:13.717Z,0.75
2022-09-02T23:08:19.256Z,0.80
2022-09-02T23:18:37.163Z,0.95
2022-09-02T23:29:03.220Z,0.73
2022-09-02T23:39:30.066Z,0.80
2022-09-02T23:49:48.017Z,0.80
